Accueil
METAR-TAF:

METAR-TAF

Aéroports :

Brest, France

Aéroport de Brest-Bretagne

latitude: 48-27N, longitude: 004-25W, altitude: 99 m

Observation

Le bulletin a été fait il y a 21 minutes, à 00:30 UTC
Vent 4 kt de ouest
Température 12°C
Humidité 100%
Pression 1012 hPa
Visibilité 10 km ou plus
pas de nuages en-dessous de 1500 mètres et pas de cumulonimbus.

METAR: LFRB 270030Z AUTO 26004KT CAVOK 12/12 Q1012 NOSIG

Heure: 02:51 (00:51 UTC)

Prévision

Le bulletin a été fait il y a 1 heure et 51 minutes, à 23:00 UTC
Prévision valable du 27 à 00 UTC au 28 à 06 UTC
Vent 5 kt de ouest/sud-ouest
Visibilité 10 km ou plus
Nuages épars à une hauteur de 2500 ft

TAF: LFRB 262300Z 2700/2806 25005KT 9999 SCT025

Observations et prévisions météorologiques de plus de 4000 aéroports (messages METAR et TAF).

Les stations disponibles sont représentées par des disques jaunes et rouges sur la carte.

Passer la souris dessus pour voir le nom de la station.

Cliquer dessus pour voir les observations et prévisions météorologiques.

Pour changer de carte: cliquez sur les boutons verts avec une croix noire pour zoomer, sur le bouton vert avec un tiret pour effectuer un zoom arrière, ou sur les flèches vertes pour les cartes adjacentes.


METAR-TAF: